sensor_id;sensor_type;location;lat;lon;timestamp;pressure;altitude;pressure_sealevel;temperature;humidity
66945;BME280;53853;51.982;5.928;2022-07-05T00:00:21;102046.13;;;16.95;59.26
66945;BME280;53853;51.982;5.928;2022-07-05T00:02:50;102047.16;;;16.94;59.39
66945;BME280;53853;51.982;5.928;2022-07-05T00:05:20;102045.78;;;16.90;59.65
66945;BME280;53853;51.982;5.928;2022-07-05T00:07:50;102045.25;;;16.87;59.57
66945;BME280;53853;51.982;5.928;2022-07-05T00:10:23;102043.41;;;16.87;59.89
66945;BME280;53853;51.982;5.928;2022-07-05T00:12:52;102043.03;;;16.82;60.36
66945;BME280;53853;51.982;5.928;2022-07-05T00:15:22;102045.03;;;16.80;60.74
66945;BME280;53853;51.982;5.928;2022-07-05T00:17:52;102049.88;;;16.76;60.58
66945;BME280;53853;51.982;5.928;2022-07-05T00:20:22;102044.16;;;16.71;61.07
66945;BME280;53853;51.982;5.928;2022-07-05T00:22:52;102039.94;;;16.69;61.33
66945;BME280;53853;51.982;5.928;2022-07-05T00:25:24;102040.94;;;16.67;61.33
66945;BME280;53853;51.982;5.928;2022-07-05T00:27:54;102040.25;;;16.65;61.49
66945;BME280;53853;51.982;5.928;2022-07-05T00:30:24;102045.81;;;16.64;61.24
66945;BME280;53853;51.982;5.928;2022-07-05T00:32:54;102035.34;;;16.61;61.70
66945;BME280;53853;51.982;5.928;2022-07-05T00:35:24;102042.88;;;16.57;62.57
66945;BME280;53853;51.982;5.928;2022-07-05T00:37:54;102038.84;;;16.53;62.80
66945;BME280;53853;51.982;5.928;2022-07-05T00:40:26;102038.03;;;16.53;63.29
66945;BME280;53853;51.982;5.928;2022-07-05T00:42:56;102034.47;;;16.52;62.98
66945;BME280;53853;51.982;5.928;2022-07-05T00:45:26;102033.94;;;16.48;63.03
66945;BME280;53853;51.982;5.928;2022-07-05T00:47:56;102034.41;;;16.44;63.43
66945;BME280;53853;51.982;5.928;2022-07-05T00:50:26;102045.66;;;16.39;63.26
66945;BME280;53853;51.982;5.928;2022-07-05T00:52:57;102037.38;;;16.33;63.67
66945;BME280;53853;51.982;5.928;2022-07-05T00:55:29;102035.31;;;16.26;63.80
66945;BME280;53853;51.982;5.928;2022-07-05T00:57:59;102034.66;;;16.24;63.64
66945;BME280;53853;51.982;5.928;2022-07-05T01:00:29;102030.25;;;16.23;63.88
66945;BME280;53853;51.982;5.928;2022-07-05T01:02:59;102039.31;;;16.22;63.52
66945;BME280;53853;51.982;5.928;2022-07-05T01:05:29;102038.78;;;16.19;64.49
66945;BME280;53853;51.982;5.928;2022-07-05T01:08:01;102041.94;;;16.14;65.00
66945;BME280;53853;51.982;5.928;2022-07-05T01:10:34;102045.25;;;16.08;65.04
66945;BME280;53853;51.982;5.928;2022-07-05T01:13:04;102042.72;;;16.06;65.29
66945;BME280;53853;51.982;5.928;2022-07-05T01:15:34;102053.81;;;16.03;65.55
66945;BME280;53853;51.982;5.928;2022-07-05T01:18:05;102052.97;;;16.03;65.31
66945;BME280;53853;51.982;5.928;2022-07-05T01:20:35;102043.50;;;15.99;65.85
66945;BME280;53853;51.982;5.928;2022-07-05T01:23:08;102042.16;;;15.94;65.91
66945;BME280;53853;51.982;5.928;2022-07-05T01:25:38;102047.53;;;15.94;65.94
66945;BME280;53853;51.982;5.928;2022-07-05T01:28:08;102047.84;;;15.91;66.30
66945;BME280;53853;51.982;5.928;2022-07-05T01:30:40;102048.16;;;15.88;66.87
66945;BME280;53853;51.982;5.928;2022-07-05T01:33:10;102043.91;;;15.86;67.17
66945;BME280;53853;51.982;5.928;2022-07-05T01:35:40;102047.78;;;15.83;66.86
66945;BME280;53853;51.982;5.928;2022-07-05T01:38:14;102048.38;;;15.77;67.57
66945;BME280;53853;51.982;5.928;2022-07-05T01:40:44;102044.28;;;15.73;67.43
66945;BME280;53853;51.982;5.928;2022-07-05T01:43:17;102050.81;;;15.70;67.30
66945;BME280;53853;51.982;5.928;2022-07-05T01:45:48;102050.13;;;15.68;67.57
66945;BME280;53853;51.982;5.928;2022-07-05T01:48:19;102049.59;;;15.65;68.08
66945;BME280;53853;51.982;5.928;2022-07-05T01:50:53;102047.03;;;15.63;67.64
66945;BME280;53853;51.982;5.928;2022-07-05T01:53:29;102043.97;;;15.58;67.56
66945;BME280;53853;51.982;5.928;2022-07-05T01:56:00;102042.44;;;15.55;67.77
66945;BME280;53853;51.982;5.928;2022-07-05T01:58:31;102044.28;;;15.55;67.79
66945;BME280;53853;51.982;5.928;2022-07-05T02:01:01;102038.91;;;15.55;67.76
66945;BME280;53853;51.982;5.928;2022-07-05T02:03:31;102038.38;;;15.51;67.95
66945;BME280;53853;51.982;5.928;2022-07-05T02:06:01;102034.97;;;15.49;68.37
66945;BME280;53853;51.982;5.928;2022-07-05T02:08:35;102032.75;;;15.45;69.01
66945;BME280;53853;51.982;5.928;2022-07-05T02:11:09;102032.22;;;15.41;69.08
66945;BME280;53853;51.982;5.928;2022-07-05T02:13:39;102025.03;;;15.42;68.61
66945;BME280;53853;51.982;5.928;2022-07-05T02:16:10;102029.38;;;15.43;68.32
66945;BME280;53853;51.982;5.928;2022-07-05T02:18:40;102027.16;;;15.38;68.33
66945;BME280;53853;51.982;5.928;2022-07-05T02:21:10;102032.81;;;15.35;68.56
66945;BME280;53853;51.982;5.928;2022-07-05T02:23:43;102034.31;;;15.29;68.92
66945;BME280;53853;51.982;5.928;2022-07-05T02:26:13;102031.75;;;15.28;68.71
66945;BME280;53853;51.982;5.928;2022-07-05T02:28:44;102033.59;;;15.27;68.57
66945;BME280;53853;51.982;5.928;2022-07-05T02:31:15;102039.97;;;15.26;69.73
66945;BME280;53853;51.982;5.928;2022-07-05T02:33:48;102038.13;;;15.27;69.32
66945;BME280;53853;51.982;5.928;2022-07-05T02:36:19;102029.38;;;15.25;69.49
66945;BME280;53853;51.982;5.928;2022-07-05T02:38:51;102035.72;;;15.24;69.33
66945;BME280;53853;51.982;5.928;2022-07-05T02:41:21;102034.06;;;15.23;69.07
66945;BME280;53853;51.982;5.928;2022-07-05T02:43:53;102037.72;;;15.21;69.18
66945;BME280;53853;51.982;5.928;2022-07-05T02:46:28;102038.88;;;15.19;69.45
66945;BME280;53853;51.982;5.928;2022-07-05T02:49:01;102034.38;;;15.19;69.65
66945;BME280;53853;51.982;5.928;2022-07-05T02:51:34;102043.09;;;15.21;69.69
66945;BME280;53853;51.982;5.928;2022-07-05T02:54:08;102034.06;;;15.23;69.32
66945;BME280;53853;51.982;5.928;2022-07-05T02:56:39;102030.66;;;15.20;69.78
66945;BME280;53853;51.982;5.928;2022-07-05T02:59:12;102040.28;;;15.23;69.32
66945;BME280;53853;51.982;5.928;2022-07-05T03:01:42;102039.09;;;15.26;69.66
66945;BME280;53853;51.982;5.928;2022-07-05T03:04:15;102040.66;;;15.28;70.18
66945;BME280;53853;51.982;5.928;2022-07-05T03:06:52;102048.72;;;15.28;70.61
66945;BME280;53853;51.982;5.928;2022-07-05T03:09:28;102049.25;;;15.32;70.29
66945;BME280;53853;51.982;5.928;2022-07-05T03:12:00;102048.94;;;15.35;69.93
66945;BME280;53853;51.982;5.928;2022-07-05T03:14:32;102052.34;;;15.37;69.91
66945;BME280;53853;51.982;5.928;2022-07-05T03:17:02;102059.94;;;15.42;69.70
66945;BME280;53853;51.982;5.928;2022-07-05T03:19:32;102061.31;;;15.46;69.38
66945;BME280;53853;51.982;5.928;2022-07-05T03:22:03;102058.19;;;15.50;69.31
66945;BME280;53853;51.982;5.928;2022-07-05T03:24:38;102062.25;;;15.54;69.32
66945;BME280;53853;51.982;5.928;2022-07-05T03:27:08;102061.09;;;15.57;69.35
66945;BME280;53853;51.982;5.928;2022-07-05T03:29:39;102060.78;;;15.60;69.45
66945;BME280;53853;51.982;5.928;2022-07-05T03:32:10;102068.53;;;15.63;69.35
66945;BME280;53853;51.982;5.928;2022-07-05T03:34:41;102065.56;;;15.66;69.58
66945;BME280;53853;51.982;5.928;2022-07-05T03:37:12;102065.56;;;15.66;69.59
66945;BME280;53853;51.982;5.928;2022-07-05T03:39:44;102066.94;;;15.70;69.64
66945;BME280;53853;51.982;5.928;2022-07-05T03:42:14;102067.47;;;15.74;69.60
66945;BME280;53853;51.982;5.928;2022-07-05T03:44:44;102068.03;;;15.78;69.46
66945;BME280;53853;51.982;5.928;2022-07-05T03:47:15;102064.22;;;15.80;69.42
66945;BME280;53853;51.982;5.928;2022-07-05T03:49:46;102068.41;;;15.83;68.96
66945;BME280;53853;51.982;5.928;2022-07-05T03:52:16;102081.69;;;15.84;69.19
66945;BME280;53853;51.982;5.928;2022-07-05T03:54:50;102078.84;;;15.86;68.85
66945;BME280;53853;51.982;5.928;2022-07-05T03:57:20;102069.66;;;15.88;68.70
66945;BME280;53853;51.982;5.928;2022-07-05T03:59:50;102072.34;;;15.88;69.29
66945;BME280;53853;51.982;5.928;2022-07-05T04:02:20;102072.34;;;15.88;68.96
66945;BME280;53853;51.982;5.928;2022-07-05T04:04:50;102075.72;;;15.90;69.31
66945;BME280;53853;51.982;5.928;2022-07-05T04:07:20;102076.28;;;15.94;69.13
66945;BME280;53853;51.982;5.928;2022-07-05T04:09:53;102072.25;;;15.98;69.29
66945;BME280;53853;51.982;5.928;2022-07-05T04:12:23;102074.47;;;16.03;68.99
66945;BME280;53853;51.982;5.928;2022-07-05T04:14:53;102074.84;;;16.08;69.23
66945;BME280;53853;51.982;5.928;2022-07-05T04:17:23;102084.47;;;16.10;69.37
66945;BME280;53853;51.982;5.928;2022-07-05T04:19:53;102087.38;;;16.17;69.00
66945;BME280;53853;51.982;5.928;2022-07-05T04:22:23;102098.66;;;16.21;69.19
66945;BME280;53853;51.982;5.928;2022-07-05T04:24:56;102086.44;;;16.26;68.99
66945;BME280;53853;51.982;5.928;2022-07-05T04:27:38;102096.72;;;16.31;69.05
66945;BME280;53853;51.982;5.928;2022-07-05T04:30:10;102089.16;;;16.35;69.05
66945;BME280;53853;51.982;5.928;2022-07-05T04:32:42;102088.03;;;16.37;69.20
66945;BME280;53853;51.982;5.928;2022-07-05T04:35:13;102094.44;;;16.44;68.88
66945;BME280;53853;51.982;5.928;2022-07-05T04:37:44;102095.38;;;16.53;68.15
66945;BME280;53853;51.982;5.928;2022-07-05T04:40:17;102088.63;;;16.57;67.96
66945;BME280;53853;51.982;5.928;2022-07-05T04:42:47;102087.84;;;16.65;67.34
66945;BME280;53853;51.982;5.928;2022-07-05T04:45:18;102085.72;;;16.69;67.09
66945;BME280;53853;51.982;5.928;2022-07-05T04:47:49;102097.66;;;16.74;66.90
66945;BME280;53853;51.982;5.928;2022-07-05T04:50:22;102087.56;;;16.76;66.87
66945;BME280;53853;51.982;5.928;2022-07-05T04:52:52;102088.63;;;16.83;66.79
66945;BME280;53853;51.982;5.928;2022-07-05T04:55:25;102098.63;;;16.91;66.87
66945;BME280;53853;51.982;5.928;2022-07-05T04:57:54;102094.59;;;16.95;66.62
66945;BME280;53853;51.982;5.928;2022-07-05T05:00:24;102098.81;;;16.98;66.70
66945;BME280;53853;51.982;5.928;2022-07-05T05:02:54;102102.91;;;17.02;66.70
66945;BME280;53853;51.982;5.928;2022-07-05T05:05:24;102098.69;;;17.08;66.69
66945;BME280;53853;51.982;5.928;2022-07-05T05:07:54;102100.72;;;17.06;66.79
66945;BME280;53853;51.982;5.928;2022-07-05T05:10:26;102105.47;;;17.12;67.02
66945;BME280;53853;51.982;5.928;2022-07-05T05:12:56;102098.06;;;17.22;66.56
66945;BME280;53853;51.982;5.928;2022-07-05T05:15:26;102091.38;;;17.26;66.66
66945;BME280;53853;51.982;5.928;2022-07-05T05:17:56;102096.78;;;17.34;66.66
66945;BME280;53853;51.982;5.928;2022-07-05T05:20:26;102108.59;;;17.42;66.50
66945;BME280;53853;51.982;5.928;2022-07-05T05:22:56;102099.50;;;17.43;66.19
66945;BME280;53853;51.982;5.928;2022-07-05T05:25:29;102106.25;;;17.47;66.17
66945;BME280;53853;51.982;5.928;2022-07-05T05:27:59;102100.03;;;17.54;66.05
66945;BME280;53853;51.982;5.928;2022-07-05T05:30:29;102107.47;;;17.61;65.71
66945;BME280;53853;51.982;5.928;2022-07-05T05:32:58;102112.53;;;17.64;65.42
66945;BME280;53853;51.982;5.928;2022-07-05T05:35:28;102120.97;;;17.69;65.36
66945;BME280;53853;51.982;5.928;2022-07-05T05:37:58;102121.97;;;17.76;65.28
66945;BME280;53853;51.982;5.928;2022-07-05T05:40:31;102125.88;;;17.82;65.02
66945;BME280;53853;51.982;5.928;2022-07-05T05:43:05;102118.94;;;17.87;64.86
66945;BME280;53853;51.982;5.928;2022-07-05T05:45:34;102123.72;;;17.93;64.85
66945;BME280;53853;51.982;5.928;2022-07-05T05:48:04;102125.25;;;18.04;64.63
66945;BME280;53853;51.982;5.928;2022-07-05T05:50:36;102125.41;;;18.11;64.37
66945;BME280;53853;51.982;5.928;2022-07-05T05:53:06;102114.81;;;18.18;64.37
66945;BME280;53853;51.982;5.928;2022-07-05T05:55:39;102113.75;;;18.27;64.17
66945;BME280;53853;51.982;5.928;2022-07-05T05:58:12;102118.16;;;18.36;63.94
66945;BME280;53853;51.982;5.928;2022-07-05T06:00:42;102121.53;;;18.46;63.87
66945;BME280;53853;51.982;5.928;2022-07-05T06:03:15;102129.25;;;18.58;62.88
66945;BME280;53853;51.982;5.928;2022-07-05T06:05:45;102125.72;;;18.65;62.92
66945;BME280;53853;51.982;5.928;2022-07-05T06:08:15;102122.16;;;18.73;63.00
66945;BME280;53853;51.982;5.928;2022-07-05T06:10:48;102135.81;;;18.80;61.58
66945;BME280;53853;51.982;5.928;2022-07-05T06:13:18;102138.34;;;18.81;62.24
66945;BME280;53853;51.982;5.928;2022-07-05T06:15:47;102137.84;;;18.86;62.23
66945;BME280;53853;51.982;5.928;2022-07-05T06:18:17;102136.13;;;18.93;62.24
66945;BME280;53853;51.982;5.928;2022-07-05T06:20:47;102136.25;;;19.00;61.81
66945;BME280;53853;51.982;5.928;2022-07-05T06:23:17;102150.13;;;19.05;61.14
66945;BME280;53853;51.982;5.928;2022-07-05T06:25:49;102143.34;;;19.09;60.66
66945;BME280;53853;51.982;5.928;2022-07-05T06:28:19;102141.16;;;19.13;60.23
66945;BME280;53853;51.982;5.928;2022-07-05T06:30:49;102134.66;;;19.22;60.14
66945;BME280;53853;51.982;5.928;2022-07-05T06:33:19;102142.94;;;19.29;60.00
66945;BME280;53853;51.982;5.928;2022-07-05T06:35:49;102140.38;;;19.35;60.44
66945;BME280;53853;51.982;5.928;2022-07-05T06:38:19;102136.78;;;19.43;59.26
66945;BME280;53853;51.982;5.928;2022-07-05T06:40:52;102147.59;;;19.43;59.63
66945;BME280;53853;51.982;5.928;2022-07-05T06:43:23;102154.50;;;19.46;59.67
66945;BME280;53853;51.982;5.928;2022-07-05T06:45:56;102145.72;;;19.44;59.21
66945;BME280;53853;51.982;5.928;2022-07-05T06:48:26;102152.13;;;19.43;58.25
66945;BME280;53853;51.982;5.928;2022-07-05T06:50:56;102152.00;;;19.36;58.68
66945;BME280;53853;51.982;5.928;2022-07-05T06:53:26;102153.41;;;19.32;59.32
66945;BME280;53853;51.982;5.928;2022-07-05T06:55:59;102153.22;;;19.25;59.50
66945;BME280;53853;51.982;5.928;2022-07-05T06:58:29;102155.94;;;19.25;59.76
66945;BME280;53853;51.982;5.928;2022-07-05T07:00:58;102151.41;;;19.26;59.94
66945;BME280;53853;51.982;5.928;2022-07-05T07:03:28;102149.84;;;19.31;59.73
66945;BME280;53853;51.982;5.928;2022-07-05T07:05:58;102146.97;;;19.33;59.66
66945;BME280;53853;51.982;5.928;2022-07-05T07:08:28;102148.00;;;19.32;59.70
66945;BME280;53853;51.982;5.928;2022-07-05T07:11:13;102156.94;;;19.32;59.85
66945;BME280;53853;51.982;5.928;2022-07-05T07:13:43;102164.88;;;19.34;59.86
66945;BME280;53853;51.982;5.928;2022-07-05T07:16:13;102157.41;;;19.36;59.21
66945;BME280;53853;51.982;5.928;2022-07-05T07:18:43;102165.34;;;19.37;59.21
66945;BME280;53853;51.982;5.928;2022-07-05T07:21:13;102166.19;;;19.38;59.23
66945;BME280;53853;51.982;5.928;2022-07-05T07:23:43;102161.50;;;19.32;59.42
66945;BME280;53853;51.982;5.928;2022-07-05T07:26:15;102162.00;;;19.35;59.39
66945;BME280;53853;51.982;5.928;2022-07-05T07:28:45;102162.47;;;19.39;59.41
66945;BME280;53853;51.982;5.928;2022-07-05T07:31:15;102166.34;;;19.45;58.80
66945;BME280;53853;51.982;5.928;2022-07-05T07:33:45;102174.47;;;19.45;57.79
66945;BME280;53853;51.982;5.928;2022-07-05T07:36:15;102170.53;;;19.47;58.30
66945;BME280;53853;51.982;5.928;2022-07-05T07:38:44;102166.47;;;19.51;58.74
66945;BME280;53853;51.982;5.928;2022-07-05T07:41:17;102165.78;;;19.58;58.86
66945;BME280;53853;51.982;5.928;2022-07-05T07:43:47;102172.13;;;19.73;58.55
66945;BME280;53853;51.982;5.928;2022-07-05T07:46:16;102177.38;;;19.98;57.00
66945;BME280;53853;51.982;5.928;2022-07-05T07:48:46;102167.00;;;20.09;56.42
66945;BME280;53853;51.982;5.928;2022-07-05T07:51:16;102173.66;;;20.22;56.85
66945;BME280;53853;51.982;5.928;2022-07-05T07:53:48;102173.41;;;20.32;55.90
66945;BME280;53853;51.982;5.928;2022-07-05T07:56:20;102171.94;;;20.44;55.84
66945;BME280;53853;51.982;5.928;2022-07-05T07:58:50;102170.03;;;20.53;55.34
66945;BME280;53853;51.982;5.928;2022-07-05T08:01:20;102168.75;;;20.63;54.92
66945;BME280;53853;51.982;5.928;2022-07-05T08:03:50;102171.03;;;20.75;54.43
66945;BME280;53853;51.982;5.928;2022-07-05T08:06:20;102166.53;;;20.82;54.31
66945;BME280;53853;51.982;5.928;2022-07-05T08:08:50;102173.00;;;20.96;54.37
66945;BME280;53853;51.982;5.928;2022-07-05T08:11:23;102171.69;;;21.07;53.25
66945;BME280;53853;51.982;5.928;2022-07-05T08:13:53;102171.88;;;21.20;53.57
66945;BME280;53853;51.982;5.928;2022-07-05T08:16:23;102182.22;;;21.31;53.36
66945;BME280;53853;51.982;5.928;2022-07-05T08:18:53;102179.25;;;21.41;51.76
66945;BME280;53853;51.982;5.928;2022-07-05T08:21:35;102177.75;;;21.53;50.86
66945;BME280;53853;51.982;5.928;2022-07-05T08:24:06;102177.06;;;21.66;51.70
66945;BME280;53853;51.982;5.928;2022-07-05T08:26:40;102188.84;;;21.74;51.22
66945;BME280;53853;51.982;5.928;2022-07-05T08:29:12;102182.28;;;21.83;51.50
66945;BME280;53853;51.982;5.928;2022-07-05T08:31:45;102186.56;;;21.92;49.84
66945;BME280;53853;51.982;5.928;2022-07-05T08:34:16;102175.75;;;21.99;50.69
66945;BME280;53853;51.982;5.928;2022-07-05T08:36:46;102178.66;;;21.97;49.33
66945;BME280;53853;51.982;5.928;2022-07-05T08:39:17;102179.31;;;21.99;49.92
66945;BME280;53853;51.982;5.928;2022-07-05T08:41:51;102168.97;;;22.10;50.56
66945;BME280;53853;51.982;5.928;2022-07-05T08:44:22;102180.91;;;22.15;48.97
66945;BME280;53853;51.982;5.928;2022-07-05T08:46:52;102179.44;;;22.13;49.18
66945;BME280;53853;51.982;5.928;2022-07-05T08:49:26;102164.03;;;22.20;48.72
66945;BME280;53853;51.982;5.928;2022-07-05T08:51:56;102175.16;;;22.25;47.19
66945;BME280;53853;51.982;5.928;2022-07-05T08:54:26;102173.63;;;22.37;48.00
66945;BME280;53853;51.982;5.928;2022-07-05T08:56:59;102170.19;;;22.50;49.21
66945;BME280;53853;51.982;5.928;2022-07-05T08:59:29;102168.22;;;22.66;47.99
66945;BME280;53853;51.982;5.928;2022-07-05T09:02:00;102164.34;;;22.82;47.59
66945;BME280;53853;51.982;5.928;2022-07-05T09:04:42;102167.69;;;22.84;46.19
66945;BME280;53853;51.982;5.928;2022-07-05T09:07:15;102170.47;;;22.90;45.62
66945;BME280;53853;51.982;5.928;2022-07-05T09:09:47;102163.78;;;22.93;44.76
66945;BME280;53853;51.982;5.928;2022-07-05T09:12:20;102162.06;;;22.85;45.38
66945;BME280;53853;51.982;5.928;2022-07-05T09:14:50;102158.91;;;22.82;45.24
66945;BME280;53853;51.982;5.928;2022-07-05T09:17:20;102157.63;;;22.77;44.78
66945;BME280;53853;51.982;5.928;2022-07-05T09:20:06;102166.03;;;22.83;45.19
66945;BME280;53853;51.982;5.928;2022-07-05T09:22:44;102171.13;;;22.92;45.90
66945;BME280;53853;51.982;5.928;2022-07-05T09:25:19;102180.41;;;23.05;44.31
66945;BME280;53853;51.982;5.928;2022-07-05T09:27:55;102178.97;;;23.09;43.28
66945;BME280;53853;51.982;5.928;2022-07-05T09:30:26;102167.88;;;23.10;43.75
66945;BME280;53853;51.982;5.928;2022-07-05T09:33:11;102175.03;;;23.11;43.48
66945;BME280;53853;51.982;5.928;2022-07-05T09:35:42;102176.63;;;23.06;42.00
66945;BME280;53853;51.982;5.928;2022-07-05T09:38:20;102171.75;;;22.94;40.60
66945;BME280;53853;51.982;5.928;2022-07-05T09:40:52;102176.31;;;22.87;42.18
66945;BME280;53853;51.982;5.928;2022-07-05T09:43:25;102177.16;;;22.88;41.89
66945;BME280;53853;51.982;5.928;2022-07-05T09:45:58;102173.59;;;22.87;40.99
66945;BME280;53853;51.982;5.928;2022-07-05T09:48:30;102176.06;;;22.82;41.73
66945;BME280;53853;51.982;5.928;2022-07-05T09:51:07;102180.22;;;22.78;42.06
66945;BME280;53853;51.982;5.928;2022-07-05T09:53:47;102185.16;;;22.68;42.69
66945;BME280;53853;51.982;5.928;2022-07-05T09:56:17;102187.38;;;22.57;43.28
66945;BME280;53853;51.982;5.928;2022-07-05T09:58:50;102196.91;;;22.47;44.47
66945;BME280;53853;51.982;5.928;2022-07-05T10:01:27;102190.31;;;22.34;45.45
66945;BME280;53853;51.982;5.928;2022-07-05T10:04:00;102195.47;;;22.29;46.28
66945;BME280;53853;51.982;5.928;2022-07-05T10:06:32;102196.06;;;22.24;47.17
66945;BME280;53853;51.982;5.928;2022-07-05T10:09:03;102193.09;;;22.19;47.79
66945;BME280;53853;51.982;5.928;2022-07-05T10:11:34;102196.25;;;22.23;48.19
66945;BME280;53853;51.982;5.928;2022-07-05T10:14:14;102193.69;;;22.36;47.94
66945;BME280;53853;51.982;5.928;2022-07-05T10:16:56;102192.06;;;22.42;48.00
66945;BME280;53853;51.982;5.928;2022-07-05T10:19:32;102191.09;;;22.50;47.95
66945;BME280;53853;51.982;5.928;2022-07-05T10:22:03;102185.91;;;22.55;47.72
66945;BME280;53853;51.982;5.928;2022-07-05T10:24:35;102179.09;;;22.66;46.82
66945;BME280;53853;51.982;5.928;2022-07-05T10:27:07;102181.84;;;22.72;46.69
66945;BME280;53853;51.982;5.928;2022-07-05T10:29:40;102178.94;;;22.74;45.40
66945;BME280;53853;51.982;5.928;2022-07-05T10:32:11;102176.41;;;22.72;45.62
66945;BME280;53853;51.982;5.928;2022-07-05T10:34:44;102181.41;;;22.69;45.75
66945;BME280;53853;51.982;5.928;2022-07-05T10:37:15;102172.44;;;22.68;45.69
66945;BME280;53853;51.982;5.928;2022-07-05T10:39:45;102176.81;;;22.69;45.62
66945;BME280;53853;51.982;5.928;2022-07-05T10:42:15;102174.09;;;22.69;44.89
66945;BME280;53853;51.982;5.928;2022-07-05T10:44:48;102176.41;;;22.72;43.77
66945;BME280;53853;51.982;5.928;2022-07-05T10:47:18;102180.63;;;22.75;42.85
66945;BME280;53853;51.982;5.928;2022-07-05T10:50:02;102167.25;;;22.80;43.51
66945;BME280;53853;51.982;5.928;2022-07-05T10:52:32;102160.59;;;22.83;43.30
66945;BME280;53853;51.982;5.928;2022-07-05T10:55:17;102154.25;;;23.04;43.22
66945;BME280;53853;51.982;5.928;2022-07-05T11:04:18;102157.63;;;23.47;42.60
66945;BME280;53853;51.982;5.928;2022-07-05T11:06:48;102151.97;;;23.56;42.23
66945;BME280;53853;51.982;5.928;2022-07-05T11:09:19;102156.00;;;23.66;42.60
66945;BME280;53853;51.982;5.928;2022-07-05T11:12:08;102144.91;;;23.75;41.77
66945;BME280;53853;51.982;5.928;2022-07-05T11:14:39;102148.47;;;23.82;41.04
66945;BME280;53853;51.982;5.928;2022-07-05T11:17:24;102149.78;;;23.93;41.44
66945;BME280;53853;51.982;5.928;2022-07-05T11:20:08;102143.94;;;23.96;41.64
66945;BME280;53853;51.982;5.928;2022-07-05T11:22:40;102151.47;;;23.94;41.35
66945;BME280;53853;51.982;5.928;2022-07-05T11:25:11;102157.97;;;23.93;41.13
66945;BME280;53853;51.982;5.928;2022-07-05T11:27:59;102147.06;;;23.93;41.25
66945;BME280;53853;51.982;5.928;2022-07-05T11:30:31;102144.97;;;23.95;41.39
66945;BME280;53853;51.982;5.928;2022-07-05T11:33:32;102148.56;;;24.09;41.25
66945;BME280;53853;51.982;5.928;2022-07-05T11:36:03;102156.50;;;23.97;41.61
66945;BME280;53853;51.982;5.928;2022-07-05T11:38:34;102157.13;;;23.92;41.83
66945;BME280;53853;51.982;5.928;2022-07-05T11:41:13;102152.50;;;23.93;42.22
66945;BME280;53853;51.982;5.928;2022-07-05T11:43:44;102152.31;;;24.01;40.72
66945;BME280;53853;51.982;5.928;2022-07-05T11:46:24;102158.00;;;24.06;39.27
66945;BME280;53853;51.982;5.928;2022-07-05T11:48:57;102150.22;;;24.16;39.54
66945;BME280;53853;51.982;5.928;2022-07-05T11:51:27;102137.44;;;24.10;39.33
66945;BME280;53853;51.982;5.928;2022-07-05T11:53:57;102147.72;;;24.08;39.08
66945;BME280;53853;51.982;5.928;2022-07-05T11:56:28;102145.81;;;24.02;38.52
66945;BME280;53853;51.982;5.928;2022-07-05T11:58:58;102150.19;;;23.90;38.17
66945;BME280;53853;51.982;5.928;2022-07-05T12:01:28;102135.97;;;23.87;38.42
66945;BME280;53853;51.982;5.928;2022-07-05T12:04:01;102136.16;;;23.86;38.47
66945;BME280;53853;51.982;5.928;2022-07-05T12:06:30;102146.22;;;23.85;38.01
66945;BME280;53853;51.982;5.928;2022-07-05T12:09:04;102135.56;;;23.84;38.64
66945;BME280;53853;51.982;5.928;2022-07-05T12:11:34;102147.06;;;23.86;38.52
66945;BME280;53853;51.982;5.928;2022-07-05T12:14:22;102152.88;;;23.69;38.15
66945;BME280;53853;51.982;5.928;2022-07-05T12:17:13;102138.16;;;23.50;38.10
66945;BME280;53853;51.982;5.928;2022-07-05T12:19:46;102135.81;;;23.41;38.91
66945;BME280;53853;51.982;5.928;2022-07-05T12:22:18;102142.91;;;23.35;39.70
66945;BME280;53853;51.982;5.928;2022-07-05T12:24:56;102136.25;;;23.44;39.07
66945;BME280;53853;51.982;5.928;2022-07-05T12:27:28;102134.38;;;23.45;39.24
66945;BME280;53853;51.982;5.928;2022-07-05T12:29:59;102140.63;;;23.45;40.12
66945;BME280;53853;51.982;5.928;2022-07-05T12:32:30;102154.25;;;23.45;40.03
66945;BME280;53853;51.982;5.928;2022-07-05T12:35:26;102144.44;;;23.51;39.24
66945;BME280;53853;51.982;5.928;2022-07-05T12:38:00;102139.63;;;23.53;39.82
66945;BME280;53853;51.982;5.928;2022-07-05T12:40:31;102142.75;;;23.57;39.60
66945;BME280;53853;51.982;5.928;2022-07-05T12:43:06;102138.41;;;23.69;38.85
66945;BME280;53853;51.982;5.928;2022-07-05T12:45:37;102144.50;;;23.78;38.49
66945;BME280;53853;51.982;5.928;2022-07-05T12:48:09;102134.06;;;23.88;38.79
66945;BME280;53853;51.982;5.928;2022-07-05T12:50:49;102137.66;;;24.02;38.92
66945;BME280;53853;51.982;5.928;2022-07-05T12:53:19;102154.00;;;24.09;37.06
66945;BME280;53853;51.982;5.928;2022-07-05T12:56:03;102141.81;;;23.98;38.08
66945;BME280;53853;51.982;5.928;2022-07-05T12:58:49;102138.81;;;23.73;39.08
66945;BME280;53853;51.982;5.928;2022-07-05T13:01:25;102162.69;;;23.64;38.72
66945;BME280;53853;51.982;5.928;2022-07-05T13:04:02;102163.19;;;23.32;39.03
66945;BME280;53853;51.982;5.928;2022-07-05T13:06:49;102165.41;;;23.15;39.45
66945;BME280;53853;51.982;5.928;2022-07-05T13:09:39;102158.84;;;23.03;39.09
66945;BME280;53853;51.982;5.928;2022-07-05T13:12:11;102165.09;;;23.04;40.33
66945;BME280;53853;51.982;5.928;2022-07-05T13:14:43;102164.16;;;23.18;39.30
66945;BME280;53853;51.982;5.928;2022-07-05T13:17:14;102158.75;;;23.25;39.14
66945;BME280;53853;51.982;5.928;2022-07-05T13:19:45;102163.38;;;23.31;39.59
66945;BME280;53853;51.982;5.928;2022-07-05T13:22:18;102161.34;;;23.40;39.86